Terminal Aerodrome Forecast
Issued by NWS

Home | Current Version | Previous Version | Text Only | Print | Product List | Glossary On
Versions: 1 2 3 4 5 6 7 8 9 10 11 12 13 14 15 16 17
820
FTUS42 TJSJ 190543
TAFIST
TAF
TIST 190543Z 1906/2006 11010KT 5SM HZ FEW025
     FM191400 11015G25KT 6SM HZ VCSH FEW020 FEW050
     FM192200 10010KT P6SM FEW025=

USA.gov is the U.S. government's official web portal to all federal, state and local government web resources and services.